Time;durP1;ratioP1;P1;durP2;ratioP2;P2;SDS_P1;SDS_P2;PMS_P1;PMS_P2;Temp;Humidity;BMP_temperature;BMP_pressure;BME280_temperature;BME280_humidity;BME280_pressure;Samples;Min_cycle;Max_cycle;Signal;HPM_P1;HPM_P2
2022/01/23 00:02:05;;;;;;;11.03;9.97;;;6.80;99.90;;;;;;10510027;28;20207;-79
2022/01/23 00:07:12;;;;;;;10.87;9.77;;;6.80;99.90;;;;;;10489146;28;20266;-78
2022/01/23 00:12:19;;;;;;;10.37;9.47;;;6.80;99.90;;;;;;10506855;28;20212;-81
2022/01/23 00:17:21;;;;;;;9.77;8.87;;;6.80;99.90;;;;;;10485868;28;20221;-79
2022/01/23 00:22:32;;;;;;;9.83;8.93;;;6.80;99.90;;;;;;10492539;28;20213;-80
2022/01/23 00:32:57;;;;;;;9.40;8.40;;;6.80;99.90;;;;;;10505495;28;20217;-79
2022/01/23 00:38:03;;;;;;;10.57;9.57;;;6.70;99.90;;;;;;10487363;28;20231;-80
2022/01/23 00:48:38;;;;;;;9.70;8.67;;;6.80;99.90;;;;;;10480771;28;20220;-79
2022/01/23 00:53:42;;;;;;;10.73;9.03;;;6.80;99.90;;;;;;10488225;28;20581;-79
2022/01/23 00:58:51;;;;;;;9.10;8.10;;;6.80;99.90;;;;;;10490291;28;20224;-80
2022/01/23 01:03:55;;;;;;;10.40;9.40;;;6.80;99.90;;;;;;10503537;28;20189;-80
2022/01/23 01:09:02;;;;;;;10.50;9.37;;;6.80;99.90;;;;;;10485650;28;20258;-80
2022/01/23 01:14:24;;;;;;;8.87;7.90;;;6.80;99.90;;;;;;10489860;28;20209;-81
2022/01/23 01:30:23;;;;;;;9.63;8.73;;;6.80;99.90;;;;;;10487785;28;20219;-81
2022/01/23 01:35:29;;;;;;;9.07;8.17;;;6.80;99.90;;;;;;10488886;28;20220;-79
2022/01/23 01:40:32;;;;;;;10.10;9.17;;;6.80;99.90;;;;;;10485087;28;20205;-79
2022/01/23 01:45:39;;;;;;;9.47;8.57;;;6.80;99.90;;;;;;10486920;28;20248;-80
2022/01/23 01:50:54;;;;;;;9.80;8.90;;;6.80;99.90;;;;;;10469480;28;20204;-80
2022/01/23 01:55:57;;;;;;;10.03;9.03;;;6.80;99.90;;;;;;10487486;28;20228;-80
2022/01/23 02:01:12;;;;;;;10.27;8.90;;;6.80;99.90;;;;;;10460096;28;20265;-80
2022/01/23 02:11:53;;;;;;;10.70;9.70;;;6.80;99.90;;;;;;10499903;28;20188;-80
2022/01/23 02:17:15;;;;;;;9.93;9.03;;;6.80;99.90;;;;;;10484013;28;20216;-81
2022/01/23 02:54:52;;;;;;;11.97;10.53;;;6.90;99.90;;;;;;10501994;28;20226;-80
2022/01/23 02:59:55;;;;;;;11.47;10.37;;;6.90;99.90;;;;;;10491061;28;20277;-78
2022/01/23 03:05:24;;;;;;;11.00;9.90;;;6.80;99.90;;;;;;10493416;28;20189;-78
2022/01/23 03:10:32;;;;;;;13.43;10.07;;;6.80;99.90;;;;;;10497530;28;20200;-79
2022/01/23 03:15:56;;;;;;;12.70;11.20;;;6.70;99.90;;;;;;10479035;28;20235;-77
2022/01/23 03:26:27;;;;;;;12.23;11.03;;;6.70;99.90;;;;;;10500737;28;20258;-78
2022/01/23 03:31:33;;;;;;;12.87;11.53;;;6.70;99.90;;;;;;10479814;28;20204;-77
2022/01/23 03:36:36;;;;;;;14.33;12.83;;;6.70;99.90;;;;;;10461119;28;20228;-78
2022/01/23 03:41:41;;;;;;;15.20;13.20;;;6.70;99.90;;;;;;10462568;28;20211;-78
2022/01/23 03:46:50;;;;;;;13.33;11.93;;;6.70;99.90;;;;;;10478460;28;20303;-78
2022/01/23 03:51:56;;;;;;;14.53;13.00;;;6.70;99.90;;;;;;10478523;28;20243;-78
2022/01/23 03:57:01;;;;;;;14.73;13.20;;;6.70;99.90;;;;;;10477256;28;20229;-78
2022/01/23 04:02:05;;;;;;;13.33;12.00;;;6.70;99.90;;;;;;10496106;28;20200;-78
2022/01/23 04:07:13;;;;;;;15.23;12.70;;;6.70;99.90;;;;;;10478396;28;20285;-78
2022/01/23 04:12:32;;;;;;;14.60;13.00;;;6.70;99.90;;;;;;10485342;28;20586;-78
2022/01/23 04:33:48;;;;;;;15.13;13.20;;;6.60;99.90;;;;;;10481019;28;20232;-78
2022/01/23 05:00:12;;;;;;;16.90;15.00;;;6.50;99.90;;;;;;10487475;28;20224;-78
2022/01/23 05:05:14;;;;;;;16.57;14.97;;;6.40;99.90;;;;;;10488623;28;20222;-78
2022/01/23 05:10:37;;;;;;;16.90;15.10;;;6.50;99.90;;;;;;10503919;28;20200;-79
2022/01/23 05:16:07;;;;;;;19.60;15.43;;;6.50;99.90;;;;;;10503026;28;20267;-78
2022/01/23 05:21:31;;;;;;;18.33;15.97;;;6.50;99.90;;;;;;10494634;28;20204;-79
2022/01/23 05:26:41;;;;;;;17.83;14.93;;;6.50;99.90;;;;;;10471258;28;20315;-80
2022/01/23 05:31:45;;;;;;;17.70;15.80;;;6.50;99.90;;;;;;10480257;28;20268;-78
2022/01/23 05:36:47;;;;;;;19.93;17.20;;;6.60;99.90;;;;;;10487340;28;20228;-79
2022/01/23 05:41:53;;;;;;;19.07;15.50;;;6.60;99.90;;;;;;10474201;28;20227;-79
2022/01/23 05:46:56;;;;;;;17.00;15.27;;;6.60;99.90;;;;;;10509681;28;20212;-79
2022/01/23 05:52:09;;;;;;;15.97;14.27;;;6.60;99.90;;;;;;10472628;28;20204;-79
2022/01/23 05:57:30;;;;;;;19.30;15.97;;;6.60;99.90;;;;;;10505863;28;20703;-78
2022/01/23 06:02:52;;;;;;;17.03;15.20;;;6.60;99.90;;;;;;10504634;28;20188;-79
2022/01/23 06:07:59;;;;;;;16.00;14.30;;;6.60;99.90;;;;;;10470544;28;20250;-79
2022/01/23 06:13:02;;;;;;;18.83;16.07;;;6.60;99.90;;;;;;10482068;28;20212;-78
2022/01/23 06:18:05;;;;;;;19.10;16.90;;;6.60;99.90;;;;;;10470696;28;20224;-78
2022/01/23 06:23:43;;;;;;;18.60;16.33;;;6.70;99.90;;;;;;10385079;28;20665;-78
2022/01/23 06:29:02;;;;;;;18.57;16.40;;;6.60;99.90;;;;;;10478395;28;20724;-78
2022/01/23 06:34:06;;;;;;;19.93;16.60;;;6.60;99.90;;;;;;10489685;28;20216;-78
2022/01/23 06:39:11;;;;;;;16.90;14.80;;;6.70;99.90;;;;;;10476979;28;20228;-78
2022/01/23 06:44:14;;;;;;;17.60;15.60;;;6.50;99.90;;;;;;10460843;28;20200;-78
2022/01/23 06:49:20;;;;;;;23.70;18.53;;;6.40;99.90;;;;;;10478208;28;20708;-78
2022/01/23 06:54:23;;;;;;;19.20;17.10;;;6.40;99.90;;;;;;10461356;28;20220;-78
2022/01/23 06:59:27;;;;;;;20.57;18.47;;;6.40;99.90;;;;;;10464149;28;20604;-79
2022/01/23 07:04:44;;;;;;;19.20;17.00;;;6.50;99.90;;;;;;10488696;28;20203;-78
2022/01/23 07:10:11;;;;;;;19.83;17.60;;;6.50;99.90;;;;;;10483160;28;20707;-78
2022/01/23 07:15:32;;;;;;;21.67;18.10;;;6.50;99.90;;;;;;10499291;28;20228;-79
2022/01/23 07:20:44;;;;;;;21.60;18.27;;;6.50;99.90;;;;;;10500902;28;20250;-79
2022/01/23 07:25:54;;;;;;;23.87;18.73;;;6.50;99.90;;;;;;10480535;28;20602;-78
2022/01/23 07:31:00;;;;;;;20.30;17.60;;;6.50;99.90;;;;;;10499315;28;20196;-79
2022/01/23 07:36:04;;;;;;;21.37;17.67;;;6.50;99.90;;;;;;10491650;22;21415;-77
2022/01/23 07:41:06;;;;;;;21.87;18.60;;;6.50;99.90;;;;;;10439413;28;20255;-76
2022/01/23 07:46:21;;;;;;;20.43;17.53;;;6.50;99.90;;;;;;10459341;28;20239;-76
2022/01/23 07:51:43;;;;;;;21.53;19.23;;;6.50;99.90;;;;;;10457784;28;20203;-76
2022/01/23 07:57:04;;;;;;;22.17;19.43;;;6.60;99.90;;;;;;10454603;28;20233;-76
2022/01/23 08:02:29;;;;;;;21.57;18.83;;;6.60;99.90;;;;;;10446705;28;20200;-76
2022/01/23 08:07:51;;;;;;;21.17;18.13;;;6.60;99.90;;;;;;10457895;28;20209;-76
2022/01/23 08:13:16;;;;;;;22.50;17.87;;;6.60;99.90;;;;;;10458539;28;20204;-76
2022/01/23 08:18:18;;;;;;;22.83;20.00;;;6.70;99.90;;;;;;10459128;28;20217;-76
2022/01/23 08:23:22;;;;;;;21.83;19.50;;;6.70;99.90;;;;;;10464519;28;20201;-76
2022/01/23 08:28:24;;;;;;;22.07;18.60;;;6.80;99.90;;;;;;10443704;28;20263;-76
2022/01/23 08:33:27;;;;;;;22.87;20.37;;;6.80;99.90;;;;;;10443790;28;20233;-76
2022/01/23 08:38:30;;;;;;;23.50;20.80;;;6.90;99.90;;;;;;10441322;28;20228;-76
2022/01/23 08:43:32;;;;;;;23.63;21.10;;;7.00;99.90;;;;;;10458199;28;20236;-76
2022/01/23 08:48:35;;;;;;;29.17;23.03;;;7.10;99.90;;;;;;10463180;28;20298;-76
2022/01/23 08:53:39;;;;;;;24.73;20.83;;;7.20;99.90;;;;;;10461554;28;20262;-76
2022/01/23 08:58:41;;;;;;;25.60;22.07;;;7.20;99.90;;;;;;10459093;28;20221;-76
2022/01/23 09:03:43;;;;;;;28.57;21.83;;;7.30;99.90;;;;;;10458282;28;20196;-76
2022/01/23 09:08:47;;;;;;;24.10;20.57;;;7.30;99.90;;;;;;10457114;28;20266;-76
2022/01/23 09:14:04;;;;;;;26.97;20.67;;;7.40;99.90;;;;;;10461116;28;20696;-78
2022/01/23 09:19:08;;;;;;;26.63;22.83;;;7.50;99.90;;;;;;10443177;28;20254;-76
2022/01/23 09:24:12;;;;;;;26.03;22.83;;;7.60;99.90;;;;;;10457217;28;20572;-76
2022/01/23 09:29:17;;;;;;;24.83;20.83;;;7.60;99.90;;;;;;10455976;28;20228;-76
2022/01/23 09:34:20;;;;;;;27.87;22.73;;;7.70;99.90;;;;;;10456360;28;20676;-76
2022/01/23 09:39:24;;;;;;;25.70;22.23;;;7.70;99.90;;;;;;10453895;28;20316;-76
2022/01/23 09:44:30;;;;;;;26.87;23.40;;;7.80;99.90;;;;;;10460001;28;20672;-77
2022/01/23 09:49:34;;;;;;;29.80;22.37;;;7.90;99.90;;;;;;10456691;28;20228;-77
2022/01/23 09:54:40;;;;;;;26.03;22.17;;;8.00;99.90;;;;;;10455702;28;20220;-76
2022/01/23 09:59:42;;;;;;;27.60;22.57;;;8.10;99.90;;;;;;10454460;28;20213;-76
2022/01/23 10:04:44;;;;;;;23.47;20.97;;;8.10;99.90;;;;;;10452767;28;20283;-75
2022/01/23 10:09:53;;;;;;;24.93;21.87;;;8.10;99.90;;;;;;10449362;28;20232;-76
2022/01/23 10:14:57;;;;;;;22.33;19.93;;;8.20;99.90;;;;;;10451515;28;20217;-77
2022/01/23 10:19:59;;;;;;;23.10;20.53;;;8.30;99.90;;;;;;10454724;28;20217;-75
2022/01/23 10:25:12;;;;;;;23.17;19.00;;;8.30;99.90;;;;;;10451877;28;20197;-76
2022/01/23 10:30:19;;;;;;;21.33;19.17;;;8.30;99.90;;;;;;10450350;28;20217;-76
2022/01/23 10:35:21;;;;;;;17.27;14.63;;;8.30;99.90;;;;;;10451986;28;20220;-76
2022/01/23 10:40:30;;;;;;;16.43;14.73;;;8.20;99.90;;;;;;10450123;28;20229;-75
2022/01/23 10:51:15;;;;;;;16.90;15.20;;;8.30;99.90;;;;;;10452450;28;20197;-76
2022/01/23 10:56:18;;;;;;;18.57;16.57;;;8.30;99.90;;;;;;10451785;28;20719;-76
2022/01/23 11:01:21;;;;;;;17.67;13.43;;;8.40;99.90;;;;;;10456365;28;20208;-76
2022/01/23 11:06:23;;;;;;;19.40;17.53;;;8.30;99.90;;;;;;10454977;28;20616;-76
2022/01/23 11:11:40;;;;;;;17.80;15.40;;;8.30;99.90;;;;;;10453221;28;20233;-77
2022/01/23 11:22:06;;;;;;;16.93;15.13;;;8.30;99.90;;;;;;10458155;28;20197;-77
2022/01/23 11:27:09;;;;;;;17.30;15.43;;;8.20;99.90;;;;;;10458720;28;20223;-76
2022/01/23 11:32:11;;;;;;;17.17;15.10;;;8.20;99.90;;;;;;10459986;28;20296;-76
2022/01/23 11:37:15;;;;;;;17.50;15.70;;;8.10;99.90;;;;;;10458381;28;20296;-76
2022/01/23 11:58:37;;;;;;;15.63;13.97;;;8.10;99.90;;;;;;10441623;28;20233;-76
2022/01/23 12:03:39;;;;;;;18.90;15.27;;;8.20;99.90;;;;;;10457699;28;20204;-76
2022/01/23 12:08:41;;;;;;;16.77;14.97;;;8.20;99.90;;;;;;10457656;28;20279;-76
2022/01/23 12:13:57;;;;;;;18.13;16.23;;;8.30;99.90;;;;;;10456818;28;20212;-76
2022/01/23 12:19:17;;;;;;;16.57;14.53;;;8.30;99.90;;;;;;10455215;28;20584;-76
2022/01/23 12:24:22;;;;;;;16.37;14.77;;;8.40;99.90;;;;;;10461686;28;20197;-75
2022/01/23 12:29:28;;;;;;;14.87;13.37;;;8.40;99.90;;;;;;10457537;28;20271;-75
2022/01/23 12:34:49;;;;;;;16.40;14.37;;;8.40;99.90;;;;;;10456012;28;20209;-74
2022/01/23 12:40:23;;;;;;;12.20;11.00;;;8.50;99.90;;;;;;10433286;28;20275;-75
2022/01/23 12:45:49;;;;;;;13.83;12.20;;;8.40;99.90;;;;;;10462671;28;20201;-76
2022/01/23 12:50:51;;;;;;;14.43;12.93;;;8.40;99.90;;;;;;10461042;28;20209;-75
2022/01/23 12:56:04;;;;;;;11.37;10.27;;;8.20;99.90;;;;;;10459433;28;20217;-75
2022/01/23 13:01:15;;;;;;;11.43;10.23;;;8.20;99.90;;;;;;10456486;28;20204;-75
2022/01/23 13:06:18;;;;;;;12.07;10.77;;;8.30;99.90;;;;;;10455333;28;20756;-76
2022/01/23 13:11:49;;;;;;;10.60;9.50;;;8.40;99.90;;;;;;10462004;28;20205;-76
2022/01/23 13:17:13;;;;;;;10.07;9.07;;;8.50;99.90;;;;;;10458509;28;20221;-76
2022/01/23 13:28:40;;;;;;;12.30;11.00;;;8.70;99.90;;;;;;10452385;28;20205;-75
2022/01/23 13:33:26;;;;;;;10.70;9.43;;;8.70;99.90;;;;;;10455545;28;20212;-75
2022/01/23 13:38:33;;;;;;;11.17;8.73;;;8.70;99.90;;;;;;10508532;22;20286;-79
2022/01/23 13:59:50;;;;;;;8.80;8.00;;;8.30;99.90;;;;;;10523470;28;20305;-77
2022/01/23 14:04:57;;;;;;;7.20;5.80;;;8.30;99.90;;;;;;10508625;28;20203;-78
2022/01/23 14:10:11;;;;;;;6.33;5.73;;;8.30;99.90;;;;;;10519582;28;20220;-77
2022/01/23 14:15:16;;;;;;;6.37;5.83;;;8.30;99.20;;;;;;10516189;28;20311;-78
2022/01/23 14:20:30;;;;;;;5.23;4.80;;;8.10;98.70;;;;;;10529922;28;20220;-80
2022/01/23 14:25:32;;;;;;;5.17;4.67;;;8.10;99.80;;;;;;10531772;28;20499;-80
2022/01/23 14:30:43;;;;;;;3.73;3.43;;;8.10;99.90;;;;;;10534414;28;20228;-79
2022/01/23 14:35:47;;;;;;;4.23;3.77;;;8.20;98.10;;;;;;10538625;28;20270;-80
2022/01/23 14:41:04;;;;;;;4.77;4.10;;;8.10;99.40;;;;;;10538626;28;20227;-80
2022/01/23 14:46:12;;;;;;;4.83;4.37;;;8.10;98.80;;;;;;10535263;28;20663;-80
2022/01/23 14:51:23;;;;;;;4.33;4.03;;;8.10;99.90;;;;;;10536580;28;20291;-80
2022/01/23 14:56:29;;;;;;;3.83;3.53;;;8.10;97.80;;;;;;10536343;28;20227;-79
2022/01/23 15:01:38;;;;;;;4.30;3.90;;;8.00;99.60;;;;;;10537907;28;20245;-79
2022/01/23 15:06:48;;;;;;;4.90;4.50;;;8.00;99.40;;;;;;10542791;28;20222;-80
2022/01/23 15:11:51;;;;;;;4.73;4.07;;;8.00;99.80;;;;;;10539797;28;20204;-80
2022/01/23 15:16:59;;;;;;;4.00;3.70;;;8.00;99.20;;;;;;10537396;28;20220;-80
2022/01/23 15:22:02;;;;;;;4.43;4.03;;;8.00;99.70;;;;;;10536907;28;20214;-80
2022/01/23 15:27:08;;;;;;;4.40;4.00;;;8.00;99.90;;;;;;10535415;28;20725;-81
2022/01/23 15:32:13;;;;;;;4.23;3.93;;;8.10;99.40;;;;;;10521466;28;20204;-80
2022/01/23 15:37:20;;;;;;;5.47;4.97;;;8.00;99.30;;;;;;10532723;28;20306;-80
2022/01/23 15:42:22;;;;;;;5.50;5.00;;;8.00;99.90;;;;;;10541239;28;20238;-78
2022/01/23 15:47:27;;;;;;;4.87;4.47;;;8.00;98.40;;;;;;10530272;28;20774;-79
2022/01/23 15:52:30;;;;;;;6.20;4.20;;;7.90;98.90;;;;;;10539987;28;20206;-80
2022/01/23 15:57:35;;;;;;;5.50;4.90;;;7.80;97.90;;;;;;10549464;28;20216;-79
2022/01/23 16:02:55;;;;;;;6.70;5.30;;;7.80;99.80;;;;;;10526607;28;20683;-80
2022/01/23 16:07:58;;;;;;;5.40;4.90;;;7.80;99.90;;;;;;10512342;28;20226;-81
2022/01/23 16:13:03;;;;;;;6.00;5.40;;;7.80;99.90;;;;;;10520812;28;20200;-81
2022/01/23 16:18:05;;;;;;;5.70;5.20;;;7.80;99.90;;;;;;10524753;28;20228;-81
2022/01/23 16:23:09;;;;;;;5.80;5.30;;;7.80;99.90;;;;;;10501145;28;20196;-80
2022/01/23 16:28:12;;;;;;;5.70;5.20;;;7.80;99.90;;;;;;10510770;28;20223;-81
2022/01/23 16:33:14;;;;;;;6.80;5.83;;;7.80;99.90;;;;;;10527670;28;20280;-79
2022/01/23 16:38:18;;;;;;;18.63;12.73;;;7.80;99.40;;;;;;10520675;28;20227;-79
2022/01/23 16:43:20;;;;;;;5.33;4.83;;;7.80;99.60;;;;;;10540415;28;20206;-79
2022/01/23 16:48:23;;;;;;;4.40;4.00;;;7.70;99.40;;;;;;10525004;28;20280;-77
2022/01/23 16:53:26;;;;;;;5.63;5.00;;;7.70;99.90;;;;;;10523506;28;20554;-78
2022/01/23 16:58:32;;;;;;;5.87;5.37;;;7.70;99.90;;;;;;10534525;28;20220;-78
2022/01/23 17:03:34;;;;;;;4.60;4.20;;;7.70;99.90;;;;;;10538249;28;20212;-78
2022/01/23 17:08:38;;;;;;;3.80;3.50;;;7.80;99.40;;;;;;10538213;28;20250;-78
2022/01/23 17:13:43;;;;;;;5.63;5.07;;;7.70;99.00;;;;;;10536651;28;20207;-77
2022/01/23 17:18:48;;;;;;;4.50;4.10;;;7.60;99.60;;;;;;10537701;28;20223;-77
2022/01/23 17:23:52;;;;;;;5.37;4.90;;;7.60;97.70;;;;;;10522836;28;20199;-77
2022/01/23 17:28:54;;;;;;;6.77;6.17;;;7.50;98.80;;;;;;10526276;28;20222;-78
2022/01/23 17:33:56;;;;;;;5.67;5.20;;;7.50;99.90;;;;;;10529182;28;20261;-78
2022/01/23 17:39:00;;;;;;;5.60;5.13;;;7.50;99.60;;;;;;10535952;28;20589;-78
2022/01/23 17:44:05;;;;;;;5.00;4.50;;;7.50;99.90;;;;;;10534295;28;20215;-80
2022/01/23 17:49:20;;;;;;;5.40;4.90;;;7.60;99.90;;;;;;10542574;28;20314;-79
2022/01/23 17:54:24;;;;;;;6.17;5.57;;;7.60;99.90;;;;;;10527463;28;20235;-80
2022/01/23 17:59:26;;;;;;;6.00;5.40;;;7.60;99.90;;;;;;10540266;28;20230;-80
2022/01/23 18:04:28;;;;;;;10.07;8.80;;;7.60;99.90;;;;;;10523244;28;20198;-80
2022/01/23 18:09:32;;;;;;;14.53;12.53;;;7.60;99.90;;;;;;10515468;28;20220;-77
2022/01/23 18:14:37;;;;;;;5.70;4.83;;;7.60;98.80;;;;;;10533292;28;20223;-78
2022/01/23 18:19:39;;;;;;;8.17;7.40;;;7.60;99.30;;;;;;10523735;28;20239;-78
2022/01/23 18:24:43;;;;;;;6.63;5.90;;;7.50;99.50;;;;;;10503363;28;20283;-78
2022/01/23 18:29:45;;;;;;;5.80;5.20;;;7.40;99.20;;;;;;10519215;28;20219;-78
2022/01/23 18:34:47;;;;;;;4.33;3.60;;;7.40;99.40;;;;;;10501190;28;20295;-76
2022/01/23 18:39:52;;;;;;;5.27;4.83;;;7.40;98.50;;;;;;10516150;28;20245;-77
2022/01/23 18:44:54;;;;;;;5.63;5.13;;;7.40;99.40;;;;;;10514046;28;20228;-78
2022/01/23 18:49:56;;;;;;;6.00;5.40;;;7.30;98.50;;;;;;10514977;28;20261;-77
2022/01/23 18:55:07;;;;;;;5.20;4.70;;;7.30;99.00;;;;;;10515959;28;20202;-77
2022/01/23 19:00:11;;;;;;;6.37;5.77;;;7.30;99.00;;;;;;10517542;28;20219;-79
2022/01/23 19:05:18;;;;;;;8.37;7.00;;;7.30;99.90;;;;;;10522700;28;20208;-78
2022/01/23 19:10:31;;;;;;;5.93;5.03;;;7.30;99.90;;;;;;10539607;28;20228;-80
2022/01/23 19:15:34;;;;;;;6.17;5.57;;;7.40;99.90;;;;;;10543641;28;20732;-79
2022/01/23 19:20:36;;;;;;;5.33;4.50;;;7.30;99.90;;;;;;10528436;28;20220;-79
2022/01/23 19:25:40;;;;;;;5.53;4.97;;;7.30;99.40;;;;;;10534307;28;20211;-79
2022/01/23 19:30:43;;;;;;;7.60;5.13;;;7.40;99.90;;;;;;10538058;28;20295;-78
2022/01/23 19:35:45;;;;;;;4.77;3.57;;;7.30;99.90;;;;;;10531096;28;20298;-79
2022/01/23 19:40:54;;;;;;;3.70;3.40;;;7.30;99.90;;;;;;10536800;28;20306;-78
2022/01/23 19:46:00;;;;;;;3.90;3.60;;;7.30;99.90;;;;;;10535869;28;20837;-78
2022/01/23 19:51:02;;;;;;;3.90;3.50;;;7.30;99.90;;;;;;10537267;28;20274;-77
2022/01/23 19:56:06;;;;;;;4.43;4.03;;;7.30;99.90;;;;;;10530580;28;20240;-78
2022/01/23 20:01:08;;;;;;;5.03;4.53;;;7.30;99.90;;;;;;10533394;28;20295;-79
2022/01/23 20:06:17;;;;;;;4.70;4.20;;;7.30;99.90;;;;;;10519625;28;20676;-76
2022/01/23 20:12:43;;;;;;;4.60;3.93;;;7.30;99.90;;;;;;10512292;28;20208;-79
2022/01/23 20:16:43;;;;;;;10.53;6.40;;;7.30;99.90;;;;;;10498531;28;20220;-77
2022/01/23 20:21:50;;;;;;;5.87;5.30;;;7.30;99.90;;;;;;10523000;28;20287;-77
2022/01/23 20:26:56;;;;;;;11.73;6.40;;;7.30;99.90;;;;;;10526547;28;20723;-78
2022/01/23 20:31:59;;;;;;;6.90;4.90;;;7.30;99.90;;;;;;10518407;28;20200;-78
2022/01/23 20:37:04;;;;;;;6.67;5.10;;;7.30;99.70;;;;;;10506925;28;20570;-78
2022/01/23 20:42:09;;;;;;;5.93;5.43;;;7.30;99.90;;;;;;10516391;28;20198;-78
2022/01/23 20:47:11;;;;;;;6.10;5.50;;;7.20;99.90;;;;;;10525486;28;20212;-76
2022/01/23 20:52:30;;;;;;;6.60;6.00;;;7.20;99.90;;;;;;10517089;28;20282;-77
2022/01/23 20:57:34;;;;;;;5.17;4.67;;;7.10;99.90;;;;;;10503644;28;20228;-78
2022/01/23 21:02:36;;;;;;;6.13;5.53;;;7.10;98.60;;;;;;10519280;28;20200;-78
2022/01/23 21:07:38;;;;;;;6.43;5.80;;;7.00;99.80;;;;;;10513002;28;20220;-77
2022/01/23 21:12:42;;;;;;;5.63;5.17;;;7.00;98.70;;;;;;10507979;28;20200;-78
2022/01/23 21:17:55;;;;;;;7.17;6.57;;;6.90;99.90;;;;;;10511064;28;20235;-78
2022/01/23 21:23:09;;;;;;;8.93;8.07;;;6.90;99.90;;;;;;10519994;28;20204;-78
2022/01/23 21:39:15;;;;;;;8.90;8.00;;;6.80;99.90;;;;;;10499100;28;20235;-78
2022/01/23 21:44:18;;;;;;;8.20;6.90;;;6.80;99.90;;;;;;10509461;28;20216;-77
2022/01/23 21:49:21;;;;;;;7.80;7.00;;;6.70;99.90;;;;;;10513090;28;20747;-78
2022/01/23 21:54:23;;;;;;;7.57;6.97;;;6.60;99.90;;;;;;10520902;28;20204;-79
2022/01/23 21:59:27;;;;;;;8.17;7.37;;;6.50;99.90;;;;;;10523132;28;20683;-78
2022/01/23 22:04:29;;;;;;;7.70;6.90;;;6.50;99.90;;;;;;10512526;28;20254;-77
2022/01/23 22:09:41;;;;;;;7.13;6.43;;;6.40;99.90;;;;;;10539669;28;20230;-79
2022/01/23 22:20:07;;;;;;;7.17;6.57;;;6.20;99.90;;;;;;10530122;28;20223;-79
2022/01/23 22:30:32;;;;;;;8.20;7.13;;;6.00;99.90;;;;;;10503233;28;20295;-80
2022/01/23 22:35:34;;;;;;;6.57;5.97;;;5.90;99.90;;;;;;10517098;28;20286;-79
2022/01/23 22:40:36;;;;;;;6.90;5.33;;;5.80;99.90;;;;;;10523615;28;20232;-79
2022/01/23 22:45:58;;;;;;;6.70;6.00;;;5.80;99.90;;;;;;10533656;28;20199;-79
2022/01/23 22:51:03;;;;;;;7.13;6.47;;;5.70;99.90;;;;;;10533309;28;20203;-80
2022/01/23 22:56:05;;;;;;;7.50;6.77;;;5.70;99.90;;;;;;10511785;28;20253;-79
2022/01/23 23:01:09;;;;;;;6.53;5.90;;;5.70;99.90;;;;;;10539103;28;20210;-78
2022/01/23 23:06:11;;;;;;;6.03;5.53;;;5.70;99.90;;;;;;10540619;28;20203;-79
2022/01/23 23:11:14;;;;;;;5.87;5.17;;;5.70;99.90;;;;;;10538931;28;20206;-79
2022/01/23 23:16:22;;;;;;;7.20;6.20;;;5.60;99.90;;;;;;10548341;28;20297;-80
2022/01/23 23:21:33;;;;;;;5.70;5.20;;;5.60;99.90;;;;;;10548460;28;20203;-80
2022/01/23 23:26:36;;;;;;;6.40;5.77;;;5.60;99.90;;;;;;10555919;28;20220;-79
2022/01/23 23:31:40;;;;;;;6.40;5.77;;;5.50;99.90;;;;;;10550442;28;20348;-80
2022/01/23 23:36:52;;;;;;;8.77;6.87;;;5.40;99.90;;;;;;10544843;28;20237;-80
2022/01/23 23:41:57;;;;;;;7.43;6.70;;;5.40;99.90;;;;;;10534514;28;20208;-78
2022/01/23 23:47:04;;;;;;;7.03;6.33;;;5.30;99.90;;;;;;10540148;28;20218;-77
2022/01/23 23:52:08;;;;;;;8.40;6.83;;;5.20;99.90;;;;;;10526621;28;20205;-77
2022/01/23 23:57:10;;;;;;;8.40;7.07;;;5.10;99.90;;;;;;10546777;28;20218;-77
